createdAt,value
2022-08-09T00:00:23.403Z,22.66
2022-08-09T00:02:54.482Z,22.69
2022-08-09T00:06:19.549Z,22.70
2022-08-09T00:08:32.443Z,22.70
2022-08-09T00:11:24.332Z,22.64
2022-08-09T00:13:55.695Z,22.74
2022-08-09T00:16:38.321Z,22.78
2022-08-09T00:19:11.779Z,22.72
2022-08-09T00:21:43.150Z,22.66
2022-08-09T00:24:27.579Z,22.66
2022-08-09T00:27:00.686Z,22.60
2022-08-09T00:30:16.565Z,22.56
2022-08-09T00:32:35.737Z,22.43
2022-08-09T00:35:06.262Z,22.34
2022-08-09T00:37:37.686Z,22.27
2022-08-09T00:40:16.932Z,22.24
2022-08-09T00:44:20.482Z,22.17
2022-08-09T00:45:50.462Z,22.14
2022-08-09T00:48:21.387Z,22.11
2022-08-09T00:50:52.689Z,22.10
2022-08-09T00:53:24.300Z,22.04
2022-08-09T00:56:03.991Z,22.07
2022-08-09T00:58:39.205Z,21.94
2022-08-09T01:01:16.219Z,21.93
2022-08-09T01:03:57.565Z,21.91
2022-08-09T01:06:53.799Z,21.82
2022-08-09T01:09:36.545Z,21.77
2022-08-09T01:12:15.840Z,21.73
2022-08-09T01:14:55.540Z,21.62
2022-08-09T01:17:34.165Z,21.44
2022-08-09T01:20:09.467Z,21.41
2022-08-09T01:22:54.819Z,21.52
2022-08-09T01:25:42.018Z,21.57
2022-08-09T01:28:22.731Z,21.65
2022-08-09T01:31:00.659Z,21.60
2022-08-09T01:33:34.274Z,21.59
2022-08-09T01:36:08.094Z,21.62
2022-08-09T01:38:44.340Z,21.67
2022-08-09T01:41:25.930Z,21.58
2022-08-09T01:44:01.868Z,21.58
2022-08-09T01:46:35.384Z,21.58
2022-08-09T01:49:10.177Z,21.57
2022-08-09T01:51:54.317Z,21.58
2022-08-09T01:54:27.493Z,21.53
2022-08-09T01:57:04.045Z,21.52
2022-08-09T01:59:40.949Z,21.53
2022-08-09T02:02:29.953Z,21.58
2022-08-09T02:05:15.859Z,21.65
2022-08-09T02:08:39.998Z,21.69
2022-08-09T02:10:50.977Z,21.67
2022-08-09T02:13:26.145Z,21.57
2022-08-09T02:16:16.005Z,21.52
2022-08-09T02:18:47.724Z,21.40
2022-08-09T02:21:24.205Z,21.29
2022-08-09T02:24:01.979Z,21.32
2022-08-09T02:26:35.922Z,21.27
2022-08-09T02:29:16.513Z,21.20
2022-08-09T02:31:50.733Z,21.19
2022-08-09T02:34:40.851Z,21.19
2022-08-09T02:37:17.796Z,21.17
2022-08-09T02:39:54.986Z,21.21
2022-08-09T02:42:29.651Z,21.24
2022-08-09T02:45:04.832Z,21.24
2022-08-09T02:47:57.351Z,21.28
2022-08-09T02:50:34.426Z,21.22
2022-08-09T02:53:06.446Z,21.11
2022-08-09T02:55:46.773Z,21.14
2022-08-09T02:58:32.794Z,21.15
2022-08-09T03:01:11.353Z,21.10
2022-08-09T03:04:17.980Z,21.06
2022-08-09T03:06:40.977Z,21.08
2022-08-09T03:09:13.086Z,21.05
2022-08-09T03:12:09.660Z,21.01
2022-08-09T03:14:36.539Z,20.99
2022-08-09T03:17:07.439Z,21.02
2022-08-09T03:19:58.440Z,21.09
2022-08-09T03:22:42.040Z,21.12
2022-08-09T03:25:26.329Z,21.13
2022-08-09T03:28:11.253Z,21.11
2022-08-09T03:30:43.524Z,21.11
2022-08-09T03:33:19.274Z,21.17
2022-08-09T03:36:15.574Z,21.14
2022-08-09T03:38:44.864Z,21.15
2022-08-09T03:41:18.250Z,21.05
2022-08-09T03:44:03.497Z,21.09
2022-08-09T03:46:39.524Z,21.09
2022-08-09T03:49:11.867Z,21.25
2022-08-09T03:51:58.742Z,21.29
2022-08-09T03:54:34.454Z,21.27
2022-08-09T03:57:18.649Z,21.31
2022-08-09T03:59:54.983Z,21.34
2022-08-09T04:02:28.892Z,21.37
2022-08-09T04:05:06.255Z,21.35
2022-08-09T04:07:53.029Z,21.42
2022-08-09T04:10:28.764Z,21.37
2022-08-09T04:13:03.699Z,21.41
2022-08-09T04:15:40.672Z,21.32
2022-08-09T04:18:25.279Z,21.33
2022-08-09T04:20:55.597Z,21.47
2022-08-09T04:23:28.364Z,21.60
2022-08-09T04:25:58.671Z,21.72
2022-08-09T04:28:33.688Z,21.76
2022-08-09T04:31:13.110Z,21.84
2022-08-09T04:33:52.381Z,22.01
2022-08-09T04:36:28.733Z,22.15
2022-08-09T04:39:04.553Z,22.16
2022-08-09T04:41:43.692Z,22.19
2022-08-09T04:44:14.493Z,22.13
2022-08-09T04:46:58.669Z,22.19
2022-08-09T04:49:52.281Z,22.19
2022-08-09T04:52:26.954Z,22.12
2022-08-09T04:55:00.696Z,22.11
2022-08-09T04:57:58.904Z,22.13
2022-08-09T05:00:22.431Z,22.23
2022-08-09T05:02:53.842Z,22.39
2022-08-09T05:05:32.230Z,22.58
2022-08-09T05:08:15.089Z,22.80
2022-08-09T05:10:48.178Z,23.06
2022-08-09T05:13:18.578Z,23.17
2022-08-09T05:15:52.288Z,23.21
2022-08-09T05:18:39.294Z,23.33
2022-08-09T05:21:24.256Z,23.34
2022-08-09T05:24:00.423Z,23.43
2022-08-09T05:26:45.815Z,23.48
2022-08-09T05:29:21.704Z,23.61
2022-08-09T05:31:57.065Z,23.59
2022-08-09T05:34:31.456Z,23.64
2022-08-09T05:37:05.179Z,23.61
2022-08-09T05:39:42.566Z,23.61
2022-08-09T05:42:21.511Z,23.73
2022-08-09T05:44:53.358Z,23.77
2022-08-09T05:47:25.199Z,23.81
2022-08-09T05:50:25.854Z,23.84
2022-08-09T05:52:52.105Z,23.73
2022-08-09T05:55:24.476Z,23.69
2022-08-09T05:57:58.450Z,23.68
2022-08-09T06:00:30.669Z,23.68
2022-08-09T06:03:10.600Z,23.66
2022-08-09T06:05:57.245Z,24.02
2022-08-09T06:08:31.357Z,24.85
2022-08-09T06:11:01.757Z,25.65
2022-08-09T06:13:49.514Z,26.47
2022-08-09T06:16:19.661Z,27.00
2022-08-09T06:18:52.790Z,27.31
2022-08-09T06:21:23.931Z,27.87
2022-08-09T06:24:01.123Z,27.80
2022-08-09T06:26:32.474Z,27.93
2022-08-09T06:29:05.655Z,28.39
2022-08-09T06:31:39.938Z,28.95
2022-08-09T06:34:29.880Z,29.40
2022-08-09T06:37:01.080Z,29.55
2022-08-09T06:39:48.435Z,29.66
2022-08-09T06:42:24.978Z,29.54
2022-08-09T06:45:52.063Z,29.72
2022-08-09T06:48:00.766Z,29.99
2022-08-09T06:50:32.056Z,29.75
2022-08-09T06:53:04.878Z,29.91
2022-08-09T06:55:35.814Z,29.31
2022-08-09T06:58:08.025Z,28.46
2022-08-09T07:01:01.187Z,28.10
2022-08-09T07:03:33.921Z,28.49
2022-08-09T07:06:10.695Z,28.17
2022-08-09T07:08:41.903Z,28.82
2022-08-09T07:11:17.673Z,28.40
2022-08-09T07:14:05.077Z,28.58
2022-08-09T07:16:44.752Z,29.26
2022-08-09T07:19:23.508Z,29.53
2022-08-09T07:21:57.315Z,29.42
2022-08-09T07:24:31.490Z,30.13
2022-08-09T07:27:04.410Z,30.35
2022-08-09T07:29:43.076Z,30.38
2022-08-09T07:32:15.886Z,30.17
2022-08-09T07:34:48.643Z,29.61
2022-08-09T07:37:22.408Z,29.83
2022-08-09T07:39:54.636Z,29.14
2022-08-09T07:42:32.538Z,29.29
2022-08-09T07:45:15.005Z,29.86
2022-08-09T07:48:01.454Z,30.83
2022-08-09T07:50:36.637Z,29.86
2022-08-09T07:53:08.985Z,30.69
2022-08-09T07:56:02.810Z,30.22
2022-08-09T07:58:29.663Z,30.75
2022-08-09T08:01:06.632Z,31.49
2022-08-09T08:03:44.286Z,31.96
2022-08-09T08:06:21.192Z,31.82
2022-08-09T08:09:03.814Z,32.19
2022-08-09T08:12:24.861Z,31.90
2022-08-09T08:14:28.502Z,32.20
2022-08-09T08:17:07.728Z,32.26
2022-08-09T08:19:46.495Z,31.01
2022-08-09T08:22:17.013Z,31.67
2022-08-09T08:24:49.207Z,32.25
2022-08-09T08:27:21.195Z,32.75
2022-08-09T08:29:57.455Z,32.12
2022-08-09T08:32:28.899Z,31.43
2022-08-09T08:35:03.563Z,31.19
2022-08-09T08:37:41.645Z,30.95
2022-08-09T08:40:24.663Z,31.03
2022-08-09T08:43:00.100Z,31.13
2022-08-09T08:45:37.237Z,31.97
2022-08-09T08:48:10.147Z,33.08
2022-08-09T08:50:45.442Z,33.65
2022-08-09T08:53:21.587Z,33.32
2022-08-09T08:55:52.824Z,33.61
2022-08-09T08:58:27.396Z,32.05
2022-08-09T09:00:59.889Z,31.41
2022-08-09T09:03:37.523Z,31.55
2022-08-09T09:06:14.219Z,31.84
2022-08-09T09:08:52.856Z,31.98
2022-08-09T09:11:33.742Z,31.39
2022-08-09T09:14:16.091Z,31.48
2022-08-09T09:16:46.595Z,31.61
2022-08-09T09:19:40.862Z,31.68
2022-08-09T09:22:16.834Z,31.60
2022-08-09T09:26:01.464Z,31.53
2022-08-09T09:28:04.473Z,32.25
2022-08-09T09:30:54.457Z,32.60
2022-08-09T09:33:44.965Z,32.03
2022-08-09T09:36:20.216Z,32.23
2022-08-09T09:38:57.382Z,31.40
2022-08-09T09:41:48.892Z,31.41
2022-08-09T09:44:31.456Z,31.60
2022-08-09T09:47:09.180Z,31.74
2022-08-09T09:50:13.864Z,31.79
2022-08-09T09:52:36.693Z,31.84
2022-08-09T09:55:23.927Z,32.29
2022-08-09T09:58:17.267Z,31.07
2022-08-09T10:00:54.545Z,30.65
2022-08-09T10:03:57.992Z,30.60
2022-08-09T10:06:32.528Z,31.06
2022-08-09T10:09:11.895Z,31.38
2022-08-09T10:12:14.355Z,31.58
2022-08-09T10:14:53.166Z,31.52
2022-08-09T10:17:50.399Z,31.78
2022-08-09T10:20:33.119Z,32.88
2022-08-09T10:23:21.884Z,33.11
2022-08-09T10:26:06.517Z,32.73
2022-08-09T10:28:49.096Z,32.55
2022-08-09T10:34:33.570Z,31.33
2022-08-09T10:37:09.797Z,31.50
2022-08-09T10:39:48.991Z,31.57
2022-08-09T10:42:20.233Z,31.45
2022-08-09T10:45:04.214Z,31.45
2022-08-09T10:48:16.214Z,31.54
2022-08-09T10:50:58.441Z,31.70
2022-08-09T10:53:46.949Z,31.83
2022-08-09T10:56:26.455Z,32.25
2022-08-09T10:58:59.012Z,32.67
2022-08-09T11:03:14.214Z,32.46
2022-08-09T11:04:34.856Z,31.63
2022-08-09T11:07:54.940Z,31.54
2022-08-09T11:10:56.297Z,31.27
2022-08-09T11:13:49.938Z,31.09
2022-08-09T11:16:37.389Z,31.08
2022-08-09T11:19:11.934Z,31.09
2022-08-09T11:22:16.767Z,31.25
2022-08-09T11:25:08.230Z,31.48
2022-08-09T11:27:52.841Z,31.79
2022-08-09T11:30:37.815Z,30.91
2022-08-09T11:33:13.988Z,31.46
2022-08-09T11:35:57.578Z,31.95
2022-08-09T11:38:33.110Z,32.21
2022-08-09T11:41:38.362Z,32.50
2022-08-09T11:44:11.289Z,32.73
2022-08-09T11:46:57.758Z,32.86
2022-08-09T11:50:56.475Z,32.61
2022-08-09T11:53:59.238Z,32.84
2022-08-09T11:56:41.381Z,32.03
2022-08-09T11:59:14.369Z,31.73
2022-08-09T12:02:17.426Z,31.54
2022-08-09T12:04:37.290Z,31.81
2022-08-09T12:07:08.939Z,32.09
2022-08-09T12:09:50.946Z,31.99
2022-08-09T12:12:28.692Z,31.98
2022-08-09T12:15:08.187Z,32.05
2022-08-09T12:17:43.519Z,32.29
2022-08-09T12:20:21.413Z,32.40
2022-08-09T12:22:56.370Z,32.30
2022-08-09T12:25:36.795Z,32.53
2022-08-09T12:29:11.405Z,32.39
2022-08-09T12:31:11.240Z,32.44
2022-08-09T12:34:01.028Z,32.75
2022-08-09T12:36:34.047Z,32.87
2022-08-09T12:39:17.211Z,32.64
2022-08-09T12:41:50.661Z,32.54
2022-08-09T12:44:24.364Z,32.66
2022-08-09T12:46:55.104Z,32.37
2022-08-09T12:49:26.542Z,32.14
2022-08-09T12:52:02.454Z,31.77
2022-08-09T12:56:12.926Z,31.39
2022-08-09T12:57:47.088Z,31.65
2022-08-09T13:00:25.140Z,31.41
2022-08-09T13:02:57.781Z,31.51
2022-08-09T13:05:35.523Z,31.66
2022-08-09T13:08:39.796Z,31.31
2022-08-09T13:11:22.691Z,31.27
2022-08-09T13:14:41.145Z,31.16
2022-08-09T13:16:54.774Z,30.82
2022-08-09T13:20:06.831Z,31.00
2022-08-09T13:22:36.844Z,31.03
2022-08-09T13:25:15.062Z,31.09
2022-08-09T13:27:54.663Z,31.32
2022-08-09T13:30:50.177Z,31.54
2022-08-09T13:33:51.604Z,30.91
2022-08-09T13:36:24.698Z,31.18
2022-08-09T13:41:17.596Z,30.46
2022-08-09T13:42:03.814Z,30.32
2022-08-09T13:44:34.849Z,30.91
2022-08-09T13:47:29.404Z,31.05
2022-08-09T13:50:02.326Z,31.04
2022-08-09T13:52:34.018Z,31.09
2022-08-09T13:55:07.410Z,31.07
2022-08-09T13:57:55.927Z,31.12
2022-08-09T14:00:30.383Z,31.21
2022-08-09T14:03:57.963Z,31.10
2022-08-09T14:06:01.414Z,31.05
2022-08-09T14:08:33.771Z,31.08
2022-08-09T14:11:04.101Z,30.85
2022-08-09T14:14:24.175Z,30.28
2022-08-09T14:16:40.184Z,30.11
2022-08-09T14:19:13.247Z,30.17
2022-08-09T14:21:43.408Z,30.28
2022-08-09T14:24:18.685Z,30.34
2022-08-09T14:26:53.574Z,30.24
2022-08-09T14:29:46.394Z,30.23
2022-08-09T14:32:16.302Z,30.08
2022-08-09T14:34:55.929Z,30.03
2022-08-09T14:37:28.589Z,30.33
2022-08-09T14:40:13.280Z,30.57
2022-08-09T14:42:43.693Z,30.58
2022-08-09T14:46:56.092Z,30.00
2022-08-09T14:48:06.568Z,29.95
2022-08-09T14:50:40.705Z,29.80
2022-08-09T14:53:16.750Z,29.97
2022-08-09T14:55:50.516Z,30.09
2022-08-09T14:58:21.226Z,30.08
2022-08-09T15:00:52.620Z,30.00
2022-08-09T15:03:28.611Z,30.11
2022-08-09T15:06:03.935Z,29.61
2022-08-09T15:08:34.446Z,29.11
2022-08-09T15:11:05.233Z,29.13
2022-08-09T15:13:48.016Z,28.90
2022-08-09T15:16:30.481Z,28.82
2022-08-09T15:19:05.650Z,28.85
2022-08-09T15:22:00.827Z,28.72
2022-08-09T15:24:32.858Z,28.27
2022-08-09T15:27:03.000Z,28.51
2022-08-09T15:30:48.655Z,28.68
2022-08-09T15:32:28.400Z,28.42
2022-08-09T15:35:02.017Z,28.57
2022-08-09T15:38:10.953Z,28.09
2022-08-09T15:40:44.288Z,28.10
2022-08-09T15:43:14.830Z,28.26
2022-08-09T15:46:07.703Z,28.04
2022-08-09T15:48:36.395Z,28.17
2022-08-09T15:51:30.196Z,28.20
2022-08-09T15:54:03.530Z,28.09
2022-08-09T15:56:38.290Z,27.96
2022-08-09T15:59:08.417Z,27.68
2022-08-09T16:01:38.870Z,27.69
2022-08-09T16:04:13.752Z,27.62
2022-08-09T16:06:44.812Z,27.25
2022-08-09T16:09:32.577Z,27.26
2022-08-09T16:12:14.090Z,27.18
2022-08-09T16:14:46.014Z,27.19
2022-08-09T16:17:16.940Z,27.05
2022-08-09T16:19:49.650Z,27.02
2022-08-09T16:22:35.425Z,26.97
2022-08-09T16:25:10.435Z,26.89
2022-08-09T16:27:41.369Z,26.83
2022-08-09T16:30:28.386Z,26.72
2022-08-09T16:33:12.190Z,26.57
2022-08-09T16:35:56.123Z,26.46
2022-08-09T16:38:29.829Z,26.46
2022-08-09T16:41:04.151Z,26.54
2022-08-09T16:43:40.339Z,26.62
2022-08-09T16:46:12.400Z,26.56
2022-08-09T16:48:56.898Z,26.45
2022-08-09T16:51:32.326Z,26.50
2022-08-09T16:54:26.218Z,26.37
2022-08-09T16:56:58.030Z,26.13
2022-08-09T16:59:28.428Z,26.20
2022-08-09T17:02:05.269Z,25.97
2022-08-09T17:04:38.339Z,25.97
2022-08-09T17:08:43.135Z,25.82
2022-08-09T17:10:03.819Z,25.77
2022-08-09T17:12:37.045Z,25.76
2022-08-09T17:15:30.605Z,25.67
2022-08-09T17:18:00.354Z,25.80
2022-08-09T17:20:37.544Z,25.76
2022-08-09T17:23:10.442Z,25.77
2022-08-09T17:25:45.096Z,25.77
2022-08-09T17:28:29.001Z,25.75
2022-08-09T17:30:59.143Z,25.74
2022-08-09T17:33:29.336Z,25.76
2022-08-09T17:36:06.654Z,25.54
2022-08-09T17:38:41.326Z,25.59
2022-08-09T17:41:38.680Z,25.43
2022-08-09T17:44:38.892Z,25.19
2022-08-09T17:47:04.121Z,25.23
2022-08-09T17:49:34.823Z,25.01
2022-08-09T17:52:05.500Z,25.22
2022-08-09T17:54:36.730Z,25.13
2022-08-09T17:57:20.516Z,25.08
2022-08-09T18:00:05.440Z,25.00
2022-08-09T18:02:41.371Z,24.94
2022-08-09T18:05:20.636Z,24.90
2022-08-09T18:07:50.821Z,24.76
2022-08-09T18:10:21.633Z,24.88
2022-08-09T18:13:43.241Z,24.72
2022-08-09T18:16:05.037Z,24.62
2022-08-09T18:18:36.286Z,24.68
2022-08-09T18:21:23.087Z,24.63
2022-08-09T18:24:11.115Z,24.47
2022-08-09T18:26:46.609Z,24.60
2022-08-09T18:30:40.546Z,24.44
2022-08-09T18:32:13.132Z,24.39
2022-08-09T18:34:46.225Z,24.38
2022-08-09T18:37:48.118Z,24.30
2022-08-09T18:40:11.720Z,24.27
2022-08-09T18:42:44.385Z,24.32
2022-08-09T18:45:21.571Z,24.26
2022-08-09T18:48:09.197Z,24.45
2022-08-09T18:50:42.697Z,24.27
2022-08-09T18:53:16.362Z,24.26
2022-08-09T18:55:56.900Z,24.22
2022-08-09T18:58:35.886Z,24.30
2022-08-09T19:01:09.411Z,24.26
2022-08-09T19:04:01.210Z,24.23
2022-08-09T19:06:32.917Z,23.89
2022-08-09T19:09:03.569Z,24.00
2022-08-09T19:11:35.207Z,23.91
2022-08-09T19:14:08.370Z,23.92
2022-08-09T19:16:38.804Z,23.85
2022-08-09T19:19:25.725Z,23.84
2022-08-09T19:22:04.595Z,23.91
2022-08-09T19:25:09.081Z,23.78
2022-08-09T19:27:28.773Z,23.80
2022-08-09T19:30:23.141Z,23.80
2022-08-09T19:32:53.161Z,23.90
2022-08-09T19:35:26.861Z,23.79
2022-08-09T19:37:57.835Z,23.96
2022-08-09T19:40:34.211Z,23.92
2022-08-09T19:43:10.244Z,24.02
2022-08-09T19:45:57.348Z,23.96
2022-08-09T19:49:00.186Z,24.06
2022-08-09T19:51:24.064Z,23.87
2022-08-09T19:53:54.250Z,23.91
2022-08-09T19:56:28.534Z,23.88
2022-08-09T19:59:18.362Z,23.99
2022-08-09T20:02:00.534Z,23.91
2022-08-09T20:04:40.397Z,23.80
2022-08-09T20:07:20.988Z,23.97
2022-08-09T20:09:52.212Z,23.96
2022-08-09T20:12:37.738Z,23.77
2022-08-09T20:16:36.898Z,23.53
2022-08-09T20:18:08.220Z,23.53
2022-08-09T20:20:38.721Z,23.55
2022-08-09T20:23:11.496Z,23.69
2022-08-09T20:25:52.607Z,23.71
2022-08-09T20:28:34.184Z,23.76
2022-08-09T20:31:05.237Z,23.52
2022-08-09T20:33:44.129Z,23.28
2022-08-09T20:36:15.454Z,23.47
2022-08-09T20:39:18.822Z,23.54
2022-08-09T20:41:43.469Z,23.52
2022-08-09T20:44:13.694Z,23.49
2022-08-09T20:46:44.371Z,23.34
2022-08-09T20:49:16.095Z,23.43
2022-08-09T20:51:50.849Z,23.30
2022-08-09T20:54:24.696Z,23.34
2022-08-09T20:56:55.008Z,23.36
2022-08-09T21:00:20.569Z,23.35
2022-08-09T21:02:18.459Z,23.25
2022-08-09T21:05:56.697Z,23.27
2022-08-09T21:07:40.616Z,23.40
2022-08-09T21:10:17.186Z,23.23
2022-08-09T21:15:34.206Z,23.15
2022-08-09T21:18:23.352Z,23.25
2022-08-09T21:20:56.306Z,23.18
2022-08-09T21:23:50.964Z,23.18
2022-08-09T21:26:19.495Z,22.88
2022-08-09T21:28:55.969Z,22.70
2022-08-09T21:31:48.880Z,22.67
2022-08-09T21:34:28.454Z,22.76
2022-08-09T21:36:59.238Z,22.82
2022-08-09T21:39:42.201Z,22.69
2022-08-09T21:42:15.537Z,22.67
2022-08-09T21:44:46.555Z,22.72
2022-08-09T21:47:18.549Z,22.61
2022-08-09T21:49:50.905Z,22.63
2022-08-09T21:52:23.018Z,22.58
2022-08-09T21:55:03.394Z,22.61
2022-08-09T21:57:59.071Z,22.64
2022-08-09T22:00:32.223Z,22.95
2022-08-09T22:03:05.828Z,22.83
2022-08-09T22:05:42.465Z,22.85
2022-08-09T22:08:16.643Z,22.80
2022-08-09T22:11:04.808Z,22.80
2022-08-09T22:13:43.354Z,22.81
2022-08-09T22:16:14.919Z,22.69
2022-08-09T22:18:54.253Z,22.76
2022-08-09T22:21:45.407Z,22.86
2022-08-09T22:24:24.142Z,22.76
2022-08-09T22:26:55.599Z,22.66
2022-08-09T22:29:46.456Z,22.78
2022-08-09T22:32:29.709Z,22.61
2022-08-09T22:35:06.984Z,22.69
2022-08-09T22:38:07.385Z,22.78
2022-08-09T22:40:38.530Z,22.62
2022-08-09T22:43:16.984Z,22.62
2022-08-09T22:48:13.373Z,22.49
2022-08-09T22:48:51.934Z,22.67
2022-08-09T22:51:24.062Z,22.59
2022-08-09T22:54:02.389Z,22.54
2022-08-09T22:56:34.591Z,22.52
2022-08-09T22:59:56.884Z,22.48
2022-08-09T23:01:59.257Z,22.50
2022-08-09T23:04:32.883Z,22.47
2022-08-09T23:07:16.255Z,22.38
2022-08-09T23:09:48.054Z,22.36
2022-08-09T23:12:18.166Z,22.35
2022-08-09T23:14:48.317Z,22.35
2022-08-09T23:17:26.955Z,22.20
2022-08-09T23:20:07.244Z,22.38
2022-08-09T23:22:38.524Z,22.28
2022-08-09T23:25:11.108Z,22.31
2022-08-09T23:28:14.282Z,22.33
2022-08-09T23:30:31.625Z,22.22
2022-08-09T23:33:04.403Z,22.12
2022-08-09T23:36:05.706Z,22.08
2022-08-09T23:38:24.991Z,22.09
2022-08-09T23:40:56.535Z,22.12
2022-08-09T23:43:26.676Z,22.10
2022-08-09T23:45:56.830Z,22.05
2022-08-09T23:48:29.612Z,21.97
2022-08-09T23:50:59.830Z,21.91
2022-08-09T23:53:36.051Z,21.93
2022-08-09T23:56:09.122Z,21.98
2022-08-09T23:58:39.662Z,21.94
